Time;durP1;ratioP1;P1;durP2;ratioP2;P2;SDS_P1;SDS_P2;PMS_P1;PMS_P2;Temp;Humidity;BMP_temperature;BMP_pressure;BME280_temperature;BME280_humidity;BME280_pressure;Samples;Min_cycle;Max_cycle;Signal;HPM_P1;HPM_P2
2023/06/04 00:02:53;;;;;;;12.37;3.30;;;;;;;13.06;84.92;100643.06;5567064;32;33845;-66
2023/06/04 00:06:00;;;;;;;7.55;3.10;;;;;;;13.13;84.96;100640.53;5567002;32;33848;-66
2023/06/04 00:09:04;;;;;;;10.82;2.87;;;;;;;13.05;85.72;100644.06;5566951;32;33911;-65
2023/06/04 00:12:10;;;;;;;3.95;2.72;;;;;;;13.02;82.19;100655.09;5566879;32;34385;-66
2023/06/04 00:15:18;;;;;;;9.75;3.17;;;;;;;12.96;79.80;100656.63;5567105;32;33962;-66
2023/06/04 00:18:25;;;;;;;7.00;2.45;;;;;;;12.95;80.59;100654.94;5566812;32;34591;-67
2023/06/04 00:21:32;;;;;;;4.57;2.30;;;;;;;13.01;79.70;100646.25;5566795;32;34735;-66
2023/06/04 00:24:43;;;;;;;13.20;2.60;;;;;;;13.04;78.66;100643.22;5567099;32;33877;-67
2023/06/04 00:27:52;;;;;;;7.15;2.92;;;;;;;13.07;77.59;100634.88;5565823;32;34489;-67
2023/06/04 00:31:02;;;;;;;7.20;2.58;;;;;;;13.04;77.25;100635.25;5566739;32;34396;-66
2023/06/04 00:34:13;;;;;;;5.90;2.55;;;;;;;12.95;77.65;100644.28;5566896;32;33753;-66
2023/06/04 00:37:25;;;;;;;9.70;2.33;;;;;;;12.98;78.60;100646.59;5566586;32;33551;-66
2023/06/04 00:40:33;;;;;;;7.18;2.40;;;;;;;13.03;77.35;100643.41;5565636;32;33907;-66
2023/06/04 00:43:45;;;;;;;9.70;2.53;;;;;;;13.06;76.53;100635.91;5566449;32;34476;-67
2023/06/04 00:46:53;;;;;;;4.53;2.50;;;;;;;13.09;75.93;100632.03;5566367;32;34413;-66
2023/06/04 00:49:59;;;;;;;7.07;2.80;;;;;;;12.94;76.84;100628.50;5566475;32;33749;-67
2023/06/04 00:53:05;;;;;;;6.28;2.45;;;;;;;12.86;79.03;100634.72;5565258;32;34590;-66
2023/06/04 00:56:13;;;;;;;3.53;2.45;;;;;;;12.85;79.10;100635.72;5566039;32;33969;-67
2023/06/04 00:59:19;;;;;;;6.18;2.50;;;;;;;12.86;80.29;100631.22;5566101;32;33705;-67
2023/06/04 01:02:26;;;;;;;5.18;2.08;;;;;;;12.83;80.12;100634.25;5566058;32;34715;-66
2023/06/04 01:05:42;;;;;;;4.25;2.45;;;;;;;12.64;81.56;100638.16;5566055;32;33962;-66
2023/06/04 01:08:54;;;;;;;5.35;2.55;;;;;;;12.47;82.44;100632.09;5565879;32;34554;-67
2023/06/04 01:12:08;;;;;;;4.60;2.60;;;;;;;12.35;83.34;100625.50;5568367;32;33823;-67
2023/06/04 01:15:15;;;;;;;6.57;2.50;;;;;;;12.32;84.07;100638.31;5568557;32;33790;-66
2023/06/04 01:18:27;;;;;;;4.10;2.12;;;;;;;12.32;83.92;100635.66;5568560;32;33862;-66
2023/06/04 01:21:35;;;;;;;6.05;2.50;;;;;;;12.20;83.57;100637.84;5568480;32;33848;-66
2023/06/04 01:24:52;;;;;;;5.68;2.35;;;;;;;12.16;82.21;100633.87;5567613;32;33814;-66
2023/06/04 01:28:03;;;;;;;7.05;2.50;;;;;;;12.22;81.30;100635.84;5568707;32;34532;-66
2023/06/04 01:31:10;;;;;;;6.62;2.05;;;;;;;12.23;81.65;100632.22;5568369;32;34471;-66
2023/06/04 01:34:18;;;;;;;7.87;2.55;;;;;;;12.24;81.47;100627.72;5568314;32;33885;-66
2023/06/04 01:37:26;;;;;;;7.22;2.22;;;;;;;12.42;80.13;100626.47;5568298;32;33698;-66
2023/06/04 01:40:34;;;;;;;4.30;2.03;;;;;;;12.61;78.92;100628.69;5568460;32;33900;-66
2023/06/04 01:43:44;;;;;;;6.45;2.50;;;;;;;12.68;78.36;100636.81;5568059;32;33838;-66
2023/06/04 01:46:51;;;;;;;6.68;2.00;;;;;;;12.62;78.97;100635.69;5568216;32;33677;-67
2023/06/04 01:49:59;;;;;;;4.32;2.12;;;;;;;12.58;78.82;100637.03;5568022;32;33751;-67
2023/06/04 01:53:08;;;;;;;4.82;2.40;;;;;;;12.56;80.27;100636.38;5568241;32;33878;-67
2023/06/04 01:56:17;;;;;;;8.20;2.10;;;;;;;12.64;80.71;100632.81;5567900;32;34041;-66
2023/06/04 01:59:24;;;;;;;3.92;2.17;;;;;;;12.65;80.05;100637.16;5568178;32;34129;-67
2023/06/04 02:02:33;;;;;;;3.70;2.20;;;;;;;12.64;78.03;100630.16;5568248;32;33841;-66
2023/06/04 02:05:40;;;;;;;4.65;2.20;;;;;;;12.68;78.98;100638.66;5568041;32;33898;-67
2023/06/04 02:08:47;;;;;;;3.22;2.12;;;;;;;12.64;79.35;100633.66;5568449;32;33681;-67
2023/06/04 02:11:52;;;;;;;4.45;2.03;;;;;;;12.56;79.45;100639.03;5567999;32;33940;-67
2023/06/04 02:14:59;;;;;;;4.03;2.15;;;;;;;12.65;79.32;100647.81;5568076;32;33818;-67
2023/06/04 02:18:16;;;;;;;5.05;2.20;;;;;;;12.69;80.21;100645.59;5568038;32;33604;-67
2023/06/04 02:21:23;;;;;;;5.28;2.53;;;;;;;12.72;79.59;100639.94;5568116;32;33555;-66
2023/06/04 02:24:32;;;;;;;6.65;2.08;;;;;;;12.71;80.71;100641.78;5568049;32;34345;-67
2023/06/04 02:27:40;;;;;;;4.75;2.22;;;;;;;12.69;80.74;100654.44;5567857;32;34013;-67
2023/06/04 02:30:46;;;;;;;4.53;2.22;;;;;;;12.67;79.74;100651.13;5567906;32;33827;-66
2023/06/04 02:33:56;;;;;;;6.72;2.50;;;;;;;12.54;80.38;100653.50;5567004;32;34883;-67
2023/06/04 02:37:06;;;;;;;4.20;2.20;;;;;;;12.44;80.99;100656.38;5567873;32;33764;-67
2023/06/04 02:40:13;;;;;;;5.15;2.20;;;;;;;12.36;83.21;100655.59;5567824;32;33672;-67
2023/06/04 02:43:21;;;;;;;4.45;2.20;;;;;;;12.31;82.61;100652.62;5567653;32;33839;-66
2023/06/04 02:46:30;;;;;;;3.03;1.83;;;;;;;12.27;84.34;100649.47;5567850;32;34556;-66
2023/06/04 02:49:37;;;;;;;7.70;2.15;;;;;;;12.28;85.77;100652.97;5567530;31;34029;-67
2023/06/04 02:52:44;;;;;;;6.87;2.40;;;;;;;12.38;86.10;100654.44;5567760;32;34539;-67
2023/06/04 02:55:52;;;;;;;6.03;2.30;;;;;;;12.47;86.48;100657.87;5567783;32;34415;-67
2023/06/04 02:59:00;;;;;;;4.90;2.20;;;;;;;12.50;86.68;100658.34;5567609;32;33838;-67
2023/06/04 03:02:06;;;;;;;8.52;2.50;;;;;;;12.38;87.99;100657.09;5566688;32;34028;-66
2023/06/04 03:05:13;;;;;;;5.05;2.40;;;;;;;12.34;90.92;100653.13;5567658;32;33779;-66
2023/06/04 03:08:21;;;;;;;7.00;2.37;;;;;;;12.51;91.86;100653.87;5567586;32;33771;-67
2023/06/04 03:11:28;;;;;;;5.07;2.30;;;;;;;12.42;92.10;100652.25;5567547;32;33910;-66
2023/06/04 03:14:38;;;;;;;7.40;2.60;;;;;;;12.46;90.44;100648.22;5566798;32;34628;-66
2023/06/04 03:17:44;;;;;;;3.85;2.30;;;;;;;12.46;91.97;100648.22;5566614;32;34602;-66
2023/06/04 03:20:53;;;;;;;4.95;2.35;;;;;;;12.43;93.41;100649.41;5567660;32;33538;-66
2023/06/04 03:24:01;;;;;;;4.93;2.47;;;;;;;12.53;93.89;100647.37;5567478;32;33901;-66
2023/06/04 03:27:08;;;;;;;4.68;2.10;;;;;;;12.70;92.74;100644.59;5567472;32;34256;-66
2023/06/04 03:30:17;;;;;;;5.32;2.35;;;;;;;12.75;91.68;100648.41;5567232;32;35058;-66
2023/06/04 03:33:24;;;;;;;6.65;2.35;;;;;;;12.78;92.80;100657.91;5565828;32;33797;-66
2023/06/04 03:36:32;;;;;;;5.43;2.05;;;;;;;12.88;92.33;100658.47;5567436;32;33627;-66
2023/06/04 03:39:39;;;;;;;6.28;2.00;;;;;;;12.79;93.65;100662.19;5567359;32;34447;-66
2023/06/04 03:42:46;;;;;;;4.20;2.28;;;;;;;12.90;91.65;100662.62;5567300;32;33976;-66
2023/06/04 03:45:52;;;;;;;5.20;2.45;;;;;;;12.94;93.13;100663.94;5567188;32;34870;-66
2023/06/04 03:49:00;;;;;;;7.55;2.58;;;;;;;13.02;94.25;100671.88;5567419;32;34487;-66
2023/06/04 03:52:07;;;;;;;3.72;2.33;;;;;;;13.10;94.37;100679.00;5567149;32;33860;-67
2023/06/04 03:55:15;;;;;;;6.32;2.30;;;;;;;13.12;93.71;100674.34;5567368;32;33502;-66
2023/06/04 03:58:22;;;;;;;8.77;2.30;;;;;;;13.25;95.26;100671.94;5566603;32;34442;-66
2023/06/04 04:01:28;;;;;;;6.28;2.28;;;;;;;13.53;90.91;100674.03;5566948;32;34767;-67
2023/06/04 04:04:36;;;;;;;5.78;2.55;;;;;;;13.80;87.61;100676.94;5567126;32;33700;-66
2023/06/04 04:07:47;;;;;;;6.65;2.30;;;;;;;13.85;86.05;100679.88;5567168;32;33769;-66
2023/06/04 04:10:56;;;;;;;8.23;2.40;;;;;;;13.81;85.65;100680.44;5566930;31;33830;-66
2023/06/04 04:14:04;;;;;;;6.00;2.45;;;;;;;13.65;85.64;100683.28;5566907;32;33961;-66
2023/06/04 04:17:11;;;;;;;6.37;2.28;;;;;;;13.54;90.42;100683.69;5567111;32;33846;-66
2023/06/04 04:20:19;;;;;;;4.90;2.37;;;;;;;13.63;92.16;100694.09;5566851;32;33911;-66
2023/06/04 04:23:27;;;;;;;6.47;2.40;;;;;;;13.78;92.82;100691.47;5566773;32;34927;-66
2023/06/04 04:26:34;;;;;;;5.47;2.67;;;;;;;13.72;94.67;100700.19;5566768;32;33945;-66
2023/06/04 04:29:44;;;;;;;5.65;2.55;;;;;;;13.71;96.03;100695.84;5566980;32;33986;-66
2023/06/04 04:32:52;;;;;;;5.65;2.75;;;;;;;13.71;96.90;100699.34;5566696;32;34894;-66
2023/06/04 04:36:03;;;;;;;4.40;2.22;;;;;;;13.82;97.28;100698.94;5566658;32;34311;-66
2023/06/04 04:39:09;;;;;;;5.28;2.47;;;;;;;14.04;93.16;100699.06;5566736;32;33740;-66
2023/06/04 04:42:16;;;;;;;7.82;2.30;;;;;;;14.18;93.31;100704.41;5566523;32;33895;-66
2023/06/04 04:45:22;;;;;;;3.50;2.05;;;;;;;14.45;87.87;100708.31;5566860;32;34796;-66
2023/06/04 04:48:30;;;;;;;7.82;2.37;;;;;;;14.75;84.99;100709.09;5569113;32;33766;-66
2023/06/04 04:51:36;;;;;;;8.68;2.37;;;;;;;14.78;80.71;100701.53;5558209;32;33700;-66
2023/06/04 04:54:44;;;;;;;3.83;1.92;;;;;;;15.08;81.08;100712.16;5568705;32;33970;-66
2023/06/04 04:57:53;;;;;;;7.72;2.40;;;;;;;15.11;79.85;100706.44;5568845;32;33699;-66
2023/06/04 05:01:01;;;;;;;4.43;1.92;;;;;;;15.24;79.18;100706.59;5568790;32;33642;-66
2023/06/04 05:04:07;;;;;;;7.68;2.00;;;;;;;15.29;75.74;100706.00;5568096;32;34092;-66
2023/06/04 05:07:15;;;;;;;2.87;1.60;;;;;;;15.52;75.87;100698.66;5568728;32;34884;-67
2023/06/04 05:10:21;;;;;;;7.65;2.40;;;;;;;15.54;74.17;100710.81;5568412;32;34617;-67
2023/06/04 05:13:31;;;;;;;3.20;1.90;;;;;;;15.50;74.76;100709.50;5568639;32;34331;-66
2023/06/04 05:16:40;;;;;;;7.12;1.98;;;;;;;15.77;70.48;100707.94;5555412;32;34318;-67
2023/06/04 05:19:49;;;;;;;3.08;1.58;;;;;;;15.50;65.73;100706.81;5568720;32;34446;-66
2023/06/04 05:22:57;;;;;;;7.60;1.83;;;;;;;15.54;66.54;100718.81;5568572;32;33772;-66
2023/06/04 05:26:02;;;;;;;2.28;1.67;;;;;;;15.41;63.29;100720.50;5568244;32;33657;-67
2023/06/04 05:29:10;;;;;;;6.10;1.95;;;;;;;15.57;61.79;100725.66;5555218;32;33811;-66
2023/06/04 05:32:18;;;;;;;2.60;1.77;;;;;;;15.74;61.76;100729.69;5568338;32;33826;-66
2023/06/04 05:35:25;;;;;;;5.82;2.00;;;;;;;15.64;58.49;100729.19;5555154;32;34128;-66
2023/06/04 05:38:35;;;;;;;7.35;1.80;;;;;;;15.55;58.27;100731.19;5568297;32;33796;-67
2023/06/04 05:41:45;;;;;;;7.62;2.33;;;;;;;15.69;58.78;100732.13;5568324;32;33776;-67
2023/06/04 05:44:53;;;;;;;5.07;1.83;;;;;;;15.58;58.40;100741.50;5568159;32;34405;-67
2023/06/04 05:48:00;;;;;;;3.30;1.65;;;;;;;15.59;57.24;100742.31;5565877;32;34101;-67
2023/06/04 05:51:08;;;;;;;7.43;1.60;;;;;;;15.44;55.99;100742.34;5569585;31;33746;-66
2023/06/04 05:54:15;;;;;;;7.03;1.77;;;;;;;15.82;56.12;100734.09;5587817;31;34482;-66
2023/06/04 05:57:23;;;;;;;5.10;1.83;;;;;;;15.96;55.77;100741.22;5587406;31;33554;-67
2023/06/04 06:00:30;;;;;;;4.68;1.73;;;;;;;16.09;54.97;100746.66;5587263;31;33941;-66
2023/06/04 06:03:39;;;;;;;5.45;1.52;;;;;;;16.32;55.82;100736.53;5585495;31;33782;-67
2023/06/04 06:06:48;;;;;;;4.95;1.70;;;;;;;16.49;54.33;100739.72;5574292;31;34260;-67
2023/06/04 06:09:57;;;;;;;;;;;;;;;16.62;53.05;100737.12;5588035;31;34471;-67
2023/06/04 06:13:06;;;;;;;7.45;1.55;;;;;;;16.79;52.52;100735.81;5587676;31;34573;-67
2023/06/04 06:16:14;;;;;;;3.87;1.77;;;;;;;17.13;51.13;100724.16;5587630;31;33869;-67
2023/06/04 06:19:21;;;;;;;3.72;1.65;;;;;;;17.24;51.15;100728.09;5587767;31;35016;-66
2023/06/04 06:22:28;;;;;;;7.60;2.10;;;;;;;16.99;50.93;100748.44;5573356;31;33648;-66
2023/06/04 06:25:34;;;;;;;4.10;1.73;;;;;;;17.04;50.92;100743.31;5587205;31;34121;-67
2023/06/04 06:28:40;;;;;;;5.15;1.60;;;;;;;17.12;49.53;100749.31;5587453;31;33641;-67
2023/06/04 06:31:47;;;;;;;4.45;1.90;;;;;;;17.70;49.16;100738.94;5587127;31;33619;-67
2023/06/04 06:34:55;;;;;;;5.03;1.77;;;;;;;17.31;49.57;100740.50;5587149;31;34009;-67
2023/06/04 06:38:02;;;;;;;4.37;1.67;;;;;;;17.65;48.00;100747.62;5587407;31;35197;-67
2023/06/04 06:41:08;;;;;;;9.20;2.20;;;;;;;17.89;46.89;100746.19;5587340;31;33604;-67
2023/06/04 06:44:15;;;;;;;5.35;1.80;;;;;;;17.56;49.17;100742.63;5586939;31;33894;-67
2023/06/04 06:47:22;;;;;;;4.70;1.60;;;;;;;18.05;47.54;100742.25;5587514;31;34168;-66
2023/06/04 06:50:35;;;;;;;3.70;1.50;;;;;;;18.57;46.06;100744.88;5573501;31;34423;-67
2023/06/04 06:53:42;;;;;;;4.05;1.73;;;;;;;18.89;45.83;100750.34;5587308;31;33759;-67
2023/06/04 06:56:49;;;;;;;4.62;1.60;;;;;;;19.39;46.37;100762.94;5587117;31;34025;-67
2023/06/04 06:59:55;;;;;;;4.18;2.00;;;;;;;19.15;45.60;100769.06;5587129;31;33773;-67
2023/06/04 07:03:04;;;;;;;4.05;1.80;;;;;;;19.32;44.80;100766.69;5587053;31;33982;-67
2023/06/04 07:06:10;;;;;;;7.90;4.30;;;;;;;18.97;45.12;100766.25;5582668;31;35059;-67
2023/06/04 07:09:18;;;;;;;8.23;1.90;;;;;;;19.00;45.48;100771.19;5584646;31;33871;-67
2023/06/04 07:12:25;;;;;;;5.40;1.62;;;;;;;19.46;46.67;100774.50;5586708;31;33450;-66
2023/06/04 07:15:31;;;;;;;4.68;1.60;;;;;;;19.69;46.26;100770.44;5578754;31;33762;-66
2023/06/04 07:18:39;;;;;;;4.20;1.70;;;;;;;19.39;46.36;100780.94;5582076;31;34456;-67
2023/06/04 07:21:46;;;;;;;10.23;1.50;;;;;;;19.54;46.42;100773.44;5582167;31;34635;-67
2023/06/04 07:24:54;;;;;;;9.70;4.65;;;;;;;19.62;46.25;100773.16;5584322;31;34460;-67
2023/06/04 07:28:03;;;;;;;5.62;1.80;;;;;;;19.64;46.09;100775.66;5585986;31;33853;-67
2023/06/04 07:31:10;;;;;;;3.85;1.40;;;;;;;19.91;45.18;100774.41;5572715;31;33839;-67
2023/06/04 07:34:15;;;;;;;8.75;1.75;;;;;;;20.05;44.82;100769.72;5586847;31;33911;-66
2023/06/04 07:37:22;;;;;;;4.35;1.60;;;;;;;20.30;44.56;100768.72;5586664;31;34495;-66
2023/06/04 07:40:28;;;;;;;4.62;1.70;;;;;;;19.93;44.67;100773.16;5586370;31;35080;-68
2023/06/04 07:43:37;;;;;;;5.03;1.92;;;;;;;21.06;43.87;100780.94;5586473;31;34481;-67
2023/06/04 07:46:44;;;;;;;4.50;2.00;;;;;;;21.62;41.28;100778.75;5586115;31;33579;-67
2023/06/04 07:49:50;;;;;;;3.85;1.52;;;;;;;22.15;40.86;100766.31;5569318;31;541364;-68
2023/06/04 07:53:06;;;;;;;12.07;1.80;;;;;;;22.67;38.64;100773.44;5582668;31;34036;-66
2023/06/04 07:56:14;;;;;;;5.32;1.92;;;;;;;23.94;37.65;100770.53;5584522;31;33901;-67
2023/06/04 07:59:24;;;;;;;4.65;1.90;;;;;;;23.21;37.70;100779.47;5582434;31;34478;-67
2023/06/04 08:02:33;;;;;;;5.28;1.50;;;;;;;22.81;37.73;100776.75;5582713;31;34389;-67
2023/06/04 08:05:41;;;;;;;5.30;1.60;;;;;;;24.01;35.30;100782.84;5586119;31;33897;-68
2023/06/04 08:08:50;;;;;;;4.80;1.73;;;;;;;24.15;36.01;100789.59;5585769;31;33909;-67
2023/06/04 08:11:58;;;;;;;;;;;;;;;22.94;36.00;100779.22;5585592;31;34318;-68
2023/06/04 08:15:05;;;;;;;5.90;1.67;;;;;;;23.09;37.18;100784.91;5586017;31;34867;-68
2023/06/04 08:18:14;;;;;;;3.30;1.47;;;;;;;23.23;34.79;100782.78;5585063;31;33801;-68
2023/06/04 08:21:28;;;;;;;6.28;1.95;;;;;;;22.89;36.25;100774.53;5585690;31;35224;-67
2023/06/04 08:24:40;;;;;;;4.22;1.77;;;;;;;22.65;37.85;100772.87;5584707;31;34008;-68
2023/06/04 08:27:49;;;;;;;4.40;1.52;;;;;;;22.18;36.45;100769.34;5576703;31;34537;-68
2023/06/04 08:30:57;;;;;;;5.20;1.67;;;;;;;22.91;36.13;100779.66;5585127;31;34854;-68
2023/06/04 08:34:05;;;;;;;6.18;1.90;;;;;;;23.33;34.57;100775.63;5571701;31;34345;-67
2023/06/04 08:37:12;;;;;;;4.03;1.60;;;;;;;23.73;33.66;100789.16;5585108;31;33946;-68
2023/06/04 08:40:19;;;;;;;7.62;1.77;;;;;;;23.44;33.55;100786.66;5577434;31;33806;-67
2023/06/04 08:43:25;;;;;;;3.87;1.65;;;;;;;23.90;33.87;100775.63;5565473;32;34317;-67
2023/06/04 08:46:33;;;;;;;5.87;1.50;;;;;;;24.78;32.42;100780.22;5579491;31;34679;-68
2023/06/04 08:49:48;;;;;;;4.25;1.50;;;;;;;25.37;32.70;100777.69;5570792;31;34945;-69
2023/06/04 08:52:56;;;;;;;7.93;1.52;;;;;;;23.98;31.11;100777.09;5584156;31;33641;-69
2023/06/04 08:56:03;;;;;;;5.07;1.50;;;;;;;23.63;31.89;100772.72;5584632;31;33993;-68
2023/06/04 08:59:10;;;;;;;5.22;1.70;;;;;;;24.39;30.41;100773.16;5583668;31;33513;-69
2023/06/04 09:02:18;;;;;;;4.22;1.40;;;;;;;24.15;32.03;100776.03;5584912;31;34046;-68
2023/06/04 09:05:26;;;;;;;5.70;1.80;;;;;;;24.29;31.61;100767.59;5581922;31;33981;-68
2023/06/04 09:08:38;;;;;;;2.87;1.50;;;;;;;24.08;30.79;100772.66;5567191;31;33880;-68
2023/06/04 09:11:55;;;;;;;3.87;1.60;;;;;;;23.51;35.36;100773.84;5564675;32;34682;-68
2023/06/04 09:15:02;;;;;;;4.90;1.83;;;;;;;22.94;34.52;100771.09;5564705;32;34130;-68
2023/06/04 09:18:09;;;;;;;4.35;1.85;;;;;;;23.29;33.49;100776.37;5564592;32;34014;-68
2023/06/04 09:21:19;;;;;;;4.82;2.00;;;;;;;23.41;34.04;100774.44;5564949;32;33714;-68
2023/06/04 09:24:39;;;;;;;3.85;1.77;;;;;;;23.29;33.12;100765.53;5564265;32;34457;-68
2023/06/04 09:27:48;;;;;;;4.30;1.52;;;;;;;23.31;33.41;100774.25;5564077;32;35311;-68
2023/06/04 09:30:54;;;;;;;3.95;1.70;;;;;;;23.43;34.21;100776.94;5570492;31;33796;-68
2023/06/04 09:34:01;;;;;;;3.80;1.60;;;;;;;23.27;32.89;100771.22;5586491;31;34762;-67
2023/06/04 09:37:17;;;;;;;6.10;1.67;;;;;;;23.19;34.10;100774.28;5578083;31;33868;-67
2023/06/04 09:40:24;;;;;;;4.10;2.00;;;;;;;23.45;34.43;100772.94;5587067;31;34628;-68
2023/06/04 09:43:30;;;;;;;11.35;1.62;;;;;;;23.20;34.97;100773.22;5586721;31;34556;-69
2023/06/04 09:46:38;;;;;;;5.20;1.70;;;;;;;23.00;36.17;100774.69;5586255;31;33653;-69
2023/06/04 09:49:47;;;;;;;6.18;1.65;;;;;;;23.51;34.17;100771.12;5586452;31;34895;-68
2023/06/04 09:52:55;;;;;;;5.57;2.10;;;;;;;23.66;36.07;100772.25;5586414;31;34454;-68
2023/06/04 09:56:04;;;;;;;7.30;2.00;;;;;;;23.46;34.76;100765.63;5575513;31;34098;-68
2023/06/04 09:59:12;;;;;;;4.05;1.62;;;;;;;23.10;34.44;100774.91;5586661;31;33686;-68
2023/06/04 10:02:20;;;;;;;3.55;1.70;;;;;;;23.26;34.10;100774.16;5585114;31;34260;-68
2023/06/04 10:05:32;;;;;;;4.85;1.58;;;;;;;23.87;33.06;100772.59;5586485;31;33649;-68
2023/06/04 10:08:41;;;;;;;6.00;1.98;;;;;;;23.77;34.38;100774.03;5586451;31;33697;-68
2023/06/04 10:11:59;;;;;;;4.23;1.63;;;;;;;23.91;32.82;100781.88;5585682;31;34646;-66
2023/06/04 10:15:12;;;;;;;4.40;2.00;;;;;;;23.88;34.62;100774.22;5586302;31;34610;-67
2023/06/04 10:18:19;;;;;;;5.47;2.10;;;;;;;23.83;32.80;100783.06;5584852;31;34526;-69
2023/06/04 10:21:26;;;;;;;3.75;1.65;;;;;;;23.31;36.01;100777.78;5585854;31;34946;-68
2023/06/04 10:24:33;;;;;;;9.90;1.98;;;;;;;23.42;35.30;100776.09;5584940;31;33729;-67
2023/06/04 10:27:40;;;;;;;3.00;1.60;;;;;;;23.71;34.60;100779.63;5586803;31;33759;-68
2023/06/04 10:30:50;;;;;;;7.82;1.90;;;;;;;23.18;34.84;100779.97;5583788;31;33791;-66
2023/06/04 10:33:58;;;;;;;4.05;1.52;;;;;;;22.74;37.85;100774.19;5566712;32;33744;-67
2023/06/04 10:37:05;;;;;;;4.43;1.50;;;;;;;23.06;35.46;100774.56;5566920;32;34666;-67
2023/06/04 10:40:10;;;;;;;5.15;1.65;;;;;;;23.00;35.46;100772.00;5567257;32;33310;-67
2023/06/04 10:43:19;;;;;;;4.05;1.58;;;;;;;22.88;34.91;100769.34;5567186;31;33875;-68
2023/06/04 10:46:25;;;;;;;5.45;1.60;;;;;;;22.93;35.31;100774.84;5586315;31;33555;-68
2023/06/04 10:49:31;;;;;;;5.40;1.77;;;;;;;24.17;33.41;100781.22;5573223;31;33847;-66
2023/06/04 10:52:38;;;;;;;4.10;1.30;;;;;;;26.54;29.65;100783.06;5586534;31;33932;-68
2023/06/04 10:55:45;;;;;;;6.18;1.83;;;;;;;25.32;30.42;100783.88;5586718;31;33974;-68
2023/06/04 10:58:53;;;;;;;6.50;1.80;;;;;;;24.85;31.82;100786.28;5573466;31;33592;-68
2023/06/04 11:02:07;;;;;;;4.25;1.70;;;;;;;25.58;30.57;100776.03;5586697;31;33801;-68
2023/06/04 11:05:15;;;;;;;8.18;1.60;;;;;;;27.88;28.68;100770.47;5586613;31;34340;-68
2023/06/04 11:08:30;;;;;;;2.70;1.50;;;;;;;27.79;28.52;100778.34;5586559;31;35282;-70
2023/06/04 11:11:36;;;;;;;5.20;1.83;;;;;;;26.65;28.68;100778.50;5573378;31;33538;-68
2023/06/04 11:14:56;;;;;;;6.65;2.03;;;;;;;25.21;31.11;100781.31;5586653;31;33819;-68
2023/06/04 11:18:01;;;;;;;7.30;1.90;;;;;;;25.00;31.55;100767.50;5585586;31;33825;-68
2023/06/04 11:21:14;;;;;;;8.00;1.52;;;;;;;24.96;32.84;100776.41;5578907;31;34687;-68
2023/06/04 11:24:17;;;;;;;4.75;1.85;;;;;;;25.39;33.19;100770.94;5573471;31;33612;-69
2023/06/04 11:27:34;;;;;;;10.68;1.70;;;;;;;25.28;32.23;100771.88;5566761;31;33997;-68
2023/06/04 11:30:40;;;;;;;3.20;1.52;;;;;;;24.58;33.05;100767.22;5578096;31;33178;-68
2023/06/04 11:33:48;;;;;;;4.07;1.92;;;;;;;24.61;32.11;100774.84;5578446;31;34278;-69
2023/06/04 11:36:53;;;;;;;7.95;1.80;;;;;;;24.86;34.01;100765.38;5566891;31;34529;-68
2023/06/04 11:40:00;;;;;;;7.20;1.80;;;;;;;24.73;32.20;100769.31;5566638;32;34131;-69
2023/06/04 11:43:05;;;;;;;4.55;1.87;;;;;;;24.68;32.98;100763.81;5572093;31;34564;-68
2023/06/04 11:46:12;;;;;;;7.12;1.87;;;;;;;24.34;32.08;100770.38;5585036;31;34780;-68
2023/06/04 11:49:16;;;;;;;6.80;1.90;;;;;;;23.99;34.46;100770.62;5586100;31;33648;-68
2023/06/04 11:52:23;;;;;;;4.90;1.75;;;;;;;23.91;33.97;100762.91;5586622;31;34066;-68
2023/06/04 11:55:29;;;;;;;7.20;1.65;;;;;;;23.83;33.87;100764.12;5585572;31;33707;-68
2023/06/04 11:58:38;;;;;;;6.40;1.98;;;;;;;23.44;33.92;100768.53;5585406;31;33831;-68
2023/06/04 12:01:46;;;;;;;4.03;1.98;;;;;;;23.32;33.86;100774.03;5586066;31;34131;-68
2023/06/04 12:04:55;;;;;;;3.65;1.90;;;;;;;23.01;34.25;100768.22;5585787;31;34516;-68
2023/06/04 12:08:10;;;;;;;4.87;2.05;;;;;;;22.81;35.06;100766.75;5585879;31;33760;-68
2023/06/04 12:11:32;;;;;;;5.95;2.30;;;;;;;22.71;36.07;100777.34;5585631;31;33892;-68
2023/06/04 12:14:38;;;;;;;9.77;1.90;;;;;;;23.05;38.32;100770.22;5585363;31;33826;-67
2023/06/04 12:17:54;;;;;;;10.47;2.20;;;;;;;23.15;37.33;100773.13;5585802;31;34456;-68
2023/06/04 12:21:00;;;;;;;6.32;1.80;;;;;;;22.99;36.10;100775.78;5586117;31;34427;-68
2023/06/04 12:24:09;;;;;;;6.93;2.07;;;;;;;23.02;39.85;100769.88;5585888;31;34063;-68
2023/06/04 12:27:15;;;;;;;6.70;1.90;;;;;;;22.83;36.38;100767.34;5586054;31;34860;-67
2023/06/04 12:30:21;;;;;;;6.25;2.15;;;;;;;22.85;36.77;100762.50;5585974;31;34859;-67
2023/06/04 12:33:25;;;;;;;4.68;2.00;;;;;;;22.80;36.33;100762.41;5586454;31;33814;-68
2023/06/04 12:36:30;;;;;;;4.78;1.98;;;;;;;22.91;37.72;100766.13;5585807;31;34553;-68
2023/06/04 12:39:36;;;;;;;4.32;2.05;;;;;;;23.19;38.63;100771.56;5586113;31;33899;-69
2023/06/04 12:42:40;;;;;;;7.18;2.00;;;;;;;23.30;35.28;100768.00;5586307;31;35001;-68
2023/06/04 12:45:47;;;;;;;5.65;1.80;;;;;;;23.57;36.61;100775.59;5585849;31;34251;-68
2023/06/04 12:48:54;;;;;;;4.62;1.87;;;;;;;23.87;37.50;100769.88;5597382;31;33939;-68
2023/06/04 12:51:58;;;;;;;6.75;2.08;;;;;;;23.90;35.33;100763.97;5605096;31;34107;-68
2023/06/04 12:55:05;;;;;;;6.43;2.17;;;;;;;23.75;36.77;100761.81;5582383;31;34609;-68
2023/06/04 12:58:08;;;;;;;7.70;2.03;;;;;;;23.89;36.80;100757.72;5585379;31;33890;-67
2023/06/04 13:01:15;;;;;;;6.90;2.37;;;;;;;23.64;39.09;100749.16;5584162;31;34360;-68
2023/06/04 13:04:19;;;;;;;5.18;2.17;;;;;;;23.32;35.99;100749.66;5585091;31;33668;-68
2023/06/04 13:07:23;;;;;;;4.20;1.92;;;;;;;23.64;36.92;100755.41;5586012;31;34816;-68
2023/06/04 13:10:34;;;;;;;4.37;1.70;;;;;;;23.85;37.32;100764.69;5584877;31;34874;-68
2023/06/04 13:13:41;;;;;;;8.40;2.10;;;;;;;23.89;38.69;100755.00;5581261;31;34527;-67
2023/06/04 13:16:48;;;;;;;4.07;1.75;;;;;;;24.18;37.87;100748.47;5584409;31;33882;-68
2023/06/04 13:19:54;;;;;;;5.78;1.98;;;;;;;24.19;38.29;100750.09;5587089;31;33664;-68
2023/06/04 13:23:01;;;;;;;7.28;2.17;;;;;;;23.96;39.31;100747.53;5585189;31;33545;-67
2023/06/04 13:26:08;;;;;;;6.18;2.20;;;;;;;24.45;35.93;100748.56;5575854;31;34076;-67
2023/06/04 13:29:16;;;;;;;10.27;2.80;;;;;;;24.58;35.96;100737.38;5581311;31;33804;-68
2023/06/04 13:32:24;;;;;;;4.20;2.12;;;;;;;25.37;35.98;100737.75;5567706;32;33622;-69
2023/06/04 13:35:35;;;;;;;6.12;2.30;;;;;;;26.01;32.51;100740.53;5577113;31;33971;-67
2023/06/04 13:38:42;;;;;;;5.35;2.42;;;;;;;26.55;32.28;100735.72;5587178;31;33862;-68
2023/06/04 13:41:49;;;;;;;8.68;1.85;;;;;;;26.51;32.57;100736.53;5580496;31;34134;-68
2023/06/04 13:44:55;;;;;;;8.20;2.28;;;;;;;26.37;31.01;100728.84;5581774;31;33845;-68
2023/06/04 13:48:05;;;;;;;6.28;2.33;;;;;;;27.35;31.97;100731.69;5576177;31;33827;-67
2023/06/04 13:51:11;;;;;;;8.38;2.08;;;;;;;27.13;31.12;100725.63;5584570;31;34662;-67
2023/06/04 13:54:17;;;;;;;5.72;2.30;;;;;;;26.29;30.88;100732.03;5586044;31;33864;-68
2023/06/04 13:57:22;;;;;;;3.85;2.15;;;;;;;25.70;32.03;100725.91;5569264;31;33746;-68
2023/06/04 14:00:30;;;;;;;8.20;2.22;;;;;;;25.72;35.25;100725.63;5571208;31;33929;-68
2023/06/04 14:03:36;;;;;;;7.57;2.30;;;;;;;24.17;35.08;100724.28;5567261;31;34578;-68
2023/06/04 14:06:43;;;;;;;10.30;2.40;;;;;;;24.63;34.85;100725.75;5571870;31;33684;-68
2023/06/04 14:09:54;;;;;;;4.43;2.20;;;;;;;24.31;35.37;100725.59;5576442;31;34500;-67
2023/06/04 14:13:02;;;;;;;7.03;2.20;;;;;;;23.86;36.12;100719.47;5572426;31;34143;-67
2023/06/04 14:16:11;;;;;;;8.77;2.50;;;;;;;24.11;36.22;100712.53;5570140;31;34008;-67
2023/06/04 14:19:19;;;;;;;11.73;2.33;;;;;;;23.89;36.27;100706.22;5568899;31;34293;-67
2023/06/04 14:22:27;;;;;;;5.12;2.20;;;;;;;24.11;37.06;100709.00;5570700;31;33895;-68
2023/06/04 14:25:36;;;;;;;4.22;2.40;;;;;;;23.67;36.73;100710.75;5585579;31;32617;-68
2023/06/04 14:28:43;;;;;;;7.78;2.40;;;;;;;23.50;38.28;100704.50;5586195;31;34033;-68
2023/06/04 14:31:51;;;;;;;4.15;2.20;;;;;;;23.26;38.99;100703.78;5584968;31;33608;-67
2023/06/04 14:34:57;;;;;;;9.13;2.45;;;;;;;22.85;39.37;100708.41;5581662;31;34362;-68